This is the latest recevied weather packets stored in our database for station/object EB1BWO-11. If no packets are shown the sender has not sent any weather packets the latest 10 day(s).
| Time | Temp. | Humidity | Pressure | Rain* | Wind** | Luminosity | Snow |
|---|---|---|---|---|---|---|---|
| 1777895790 | 15.56° C | 75% | 1018.2 hPa | - | - | - | - |
| 1777894889 | 15° C | 77% | 1018.2 hPa | - | - | - | - |
| 1777893989 | 14.44° C | 76% | 1018.2 hPa | - | - | - | - |
| 1777893089 | 16.67° C | 72% | 1018.1 hPa | - | - | - | - |
| 1777892189 | 20° C | 63% | 1018.1 hPa | - | - | - | - |
| 1777891289 | 18.89° C | 66% | 1018.2 hPa | - | - | - | - |
| 1777890389 | 15° C | 75% | 1018.2 hPa | - | - | - | - |
| 1777889489 | 16.11° C | 74% | 1018.3 hPa | - | - | - | - |
| 1777888589 | 17.78° C | 70% | 1018.1 hPa | - | - | - | - |
| 1777887688 | 14.44° C | 75% | 1018.2 hPa | - | - | - | - |
| 1777886788 | 13.33° C | 78% | 1018.3 hPa | - | - | - | - |
| 1777885888 | 13.33° C | 77% | 1018.2 hPa | - | - | - | - |
| 1777884988 | 14.44° C | 75% | 1018 hPa | - | - | - | - |
| 1777884088 | 15° C | 75% | 1017.9 hPa | - | - | - | - |
| 1777883188 | 15.56° C | 74% | 1017.8 hPa | - | - | - | - |
| 1777882288 | 15° C | 75% | 1017.6 hPa | - | - | - | - |
| 1777881388 | 14.44° C | 76% | 1017.6 hPa | - | - | - | - |
| 1777880487 | 13.33° C | 78% | 1017.4 hPa | - | - | - | - |
| 1777879587 | 12.78° C | 79% | 1017.5 hPa | - | - | - | - |
| 1777878687 | 12.78° C | 79% | 1017.3 hPa | - | - | - | - |
| 1777877787 | 12.22° C | 80% | 1017.3 hPa | - | - | - | - |
| 1777876887 | 12.22° C | 80% | 1017.1 hPa | - | - | - | - |
| 1777875988 | 12.22° C | 79% | 1017 hPa | - | - | - | - |
| 1777875087 | 12.22° C | 80% | 1016.9 hPa | - | - | - | - |
| 1777874186 | 11.67° C | 80% | 1016.9 hPa | - | - | - | - |
* Rain since midnight (hover to see other rain measurements)
** Current wind speed in m/s (hover to see current wind gust speed)